Sv.knyaz Vladimir — UBKI2 — position and weather

sailwx.info

Track history (hours):
 
Tides and Currents Weather Stations Pressure Air Temp Water Temp Dewpoint Dewpoint Depression Visibility Wind Speed Wind Dir Waves Ship Positions

Sv.knyaz Vladimir

Last reported at 2014-Sep-30 14:20 UTC. Time now 2014-Oct-01 22:21 UTC.
Position N 44°04' E 036°07'.

Length 128 m; draft 4.5 m.

Type: Cargo ship. MMSI: 273350360.

Date/timePositionNaut miles runAvg speedWind from/ knotsBaromVisibWave heightAir tempDewpointWater temp
2014-Sep-30 14:20N 44°04' E 036°07'54 8.7
2014-Sep-30 08:09N 44°24' E 037°18'5 9.2
2014-Sep-30 07:33N 44°26' E 037°24'10 9.5
2014-Sep-30 06:33N 44°31' E 037°36'9 8.9
2014-Sep-30 05:34N 44°36' E 037°46'7 6.9
2014-Sep-30 04:33N 44°43' E 037°48'1 0.9
2014-Sep-30 03:32N 44°44' E 037°48'0 0.0
2014-Sep-30 02:32N 44°44' E 037°48'0 0.0
2014-Sep-30 01:32N 44°44' E 037°48'0 0.0
2014-Sep-30 00:32N 44°44' E 037°48'0 0.0
2014-Sep-29 23:32N 44°44' E 037°48'0 0.0
2014-Sep-29 22:32N 44°44' E 037°48'0 0.0
2014-Sep-29 21:33N 44°44' E 037°48'0 0.0
2014-Sep-29 20:30N 44°44' E 037°48'0 0.0
2014-Sep-29 19:33N 44°44' E 037°48'0 0.0
2014-Sep-29 18:31N 44°44' E 037°48'0 0.0
2014-Sep-29 17:31N 44°44' E 037°48'0 0.0
2014-Sep-29 16:28N 44°44' E 037°48'0 0.0
2014-Sep-29 15:31N 44°44' E 037°48'0 0.0
2014-Sep-29 14:31N 44°44' E 037°48'0 0.0
2014-Sep-29 13:31N 44°44' E 037°48'0 0.0
2014-Sep-29 12:31N 44°44' E 037°48'0 0.0
2014-Sep-29 11:31N 44°44' E 037°48'0 0.0
2014-Sep-29 10:28N 44°44' E 037°48'0 0.0
2014-Sep-29 09:31N 44°44' E 037°48'0 0.0
2014-Sep-29 08:31N 44°44' E 037°48'0 0.0
2014-Sep-29 07:31N 44°44' E 037°48'0 0.0
2014-Sep-29 06:31N 44°44' E 037°48'0 0.0
2014-Sep-29 05:31N 44°44' E 037°48'0 0.0
2014-Sep-29 04:33N 44°44' E 037°48'0 0.0
2014-Sep-29 03:33N 44°44' E 037°48'0 0.0
2014-Sep-29 02:30N 44°44' E 037°48'0 0.0
2014-Sep-29 01:33N 44°44' E 037°48'0 0.0
2014-Sep-29 00:33N 44°44' E 037°48'0 0.0
2014-Sep-28 23:33N 44°44' E 037°48'0 0.0
2014-Sep-28 22:27N 44°44' E 037°48'0 0.0
2014-Sep-28 21:33N 44°44' E 037°48'0 0.0
2014-Sep-28 20:33N 44°44' E 037°48'0 0.0
2014-Sep-28 19:32N 44°44' E 037°48'0 0.0
2014-Sep-28 18:32N 44°44' E 037°48'0 0.0
2014-Sep-28 17:32N 44°44' E 037°48'0 0.0
2014-Sep-28 16:32N 44°44' E 037°48'0 0.0
2014-Sep-28 15:32N 44°44' E 037°48'0 0.0
2014-Sep-28 14:32N 44°44' E 037°48'0 0.0
2014-Sep-28 13:32N 44°44' E 037°48'0 0.0
2014-Sep-28 12:32N 44°44' E 037°48'0 0.0
2014-Sep-28 11:32N 44°44' E 037°48'0 0.0
2014-Sep-28 10:32N 44°44' E 037°48'0 0.0
2014-Sep-28 09:32N 44°44' E 037°48'0 0.0
2014-Sep-28 08:29N 44°44' E 037°48'0 0.0
2014-Sep-28 07:32N 44°44' E 037°48'0 0.0
2014-Sep-28 06:32N 44°44' E 037°48'0 0.0
2014-Sep-28 05:32N 44°44' E 037°48'0 0.0
2014-Sep-28 04:32N 44°44' E 037°48'0 0.0
2014-Sep-28 03:32N 44°44' E 037°48'0 0.0
2014-Sep-28 02:32N 44°44' E 037°48'0 0.0
2014-Sep-28 01:32N 44°44' E 037°48'0 0.0
2014-Sep-28 00:32N 44°44' E 037°48'0 0.0
2014-Sep-27 23:32N 44°44' E 037°48'0 0.0
2014-Sep-27 22:32N 44°44' E 037°48'0 0.0
2014-Sep-27 21:32N 44°44' E 037°48'0 0.0
2014-Sep-27 20:26N 44°44' E 037°48'0 0.0
2014-Sep-27 19:33N 44°44' E 037°48'0 0.0
2014-Sep-27 18:32N 44°44' E 037°48'0 0.0
2014-Sep-27 17:29N 44°44' E 037°48'0 0.0
2014-Sep-27 16:32N 44°44' E 037°48'0 0.0
2014-Sep-27 15:32N 44°44' E 037°48'0 0.0
2014-Sep-27 14:32N 44°44' E 037°48'0 0.0
2014-Sep-27 13:32N 44°44' E 037°48'0 0.0
2014-Sep-27 12:29N 44°44' E 037°48'0 0.0
2014-Sep-27 11:32N 44°44' E 037°48'0 0.0
2014-Sep-27 10:29N 44°44' E 037°48'0 0.0
2014-Sep-27 09:32N 44°44' E 037°48'0 0.0
2014-Sep-27 08:29N 44°44' E 037°48'0 0.0
2014-Sep-27 07:29N 44°44' E 037°48'0 0.0
2014-Sep-27 06:29N 44°44' E 037°48'0 0.0
2014-Sep-27 05:29N 44°44' E 037°48'0 0.0
2014-Sep-27 04:32N 44°44' E 037°48'0 0.0
2014-Sep-27 03:32N 44°44' E 037°48'0 0.0
2014-Sep-27 02:29N 44°44' E 037°48'0 0.0
2014-Sep-27 01:32N 44°44' E 037°48'0 0.0
2014-Sep-27 00:28N 44°44' E 037°48'0 0.0
2014-Sep-26 23:31N 44°44' E 037°48'0 0.0
2014-Sep-26 22:31N 44°44' E 037°48'0 0.0
2014-Sep-26 21:31N 44°44' E 037°48'0 0.0
2014-Sep-26 20:31N 44°44' E 037°48'0 0.0
2014-Sep-26 19:33N 44°44' E 037°48'0 0.0
2014-Sep-26 18:31N 44°44' E 037°48'0 0.0
2014-Sep-26 17:31N 44°44' E 037°48'0 0.0
2014-Sep-26 16:31N 44°44' E 037°48'0 0.0
2014-Sep-26 15:31N 44°44' E 037°48'0 0.0
2014-Sep-26 14:31N 44°44' E 037°48'0 0.0
2014-Sep-26 13:31N 44°44' E 037°48'0 0.0
2014-Sep-26 12:31N 44°44' E 037°48'0 0.0
2014-Sep-26 11:31N 44°44' E 037°48'0 0.0
2014-Sep-26 10:31N 44°44' E 037°48'0 0.0
2014-Sep-26 09:31N 44°44' E 037°48'0 0.0
2014-Sep-26 08:31N 44°44' E 037°48'0 0.0
2014-Sep-26 07:31N 44°44' E 037°48'0 0.0
2014-Sep-26 06:31N 44°44' E 037°48'0 0.0
2014-Sep-26 05:31N 44°44' E 037°48'0 0.0
2014-Sep-26 04:32N 44°44' E 037°48'0 0.0
2014-Sep-26 03:32N 44°44' E 037°48'0 0.0
2014-Sep-26 02:29N 44°44' E 037°48'0 0.0
2014-Sep-26 01:32N 44°44' E 037°48'0 0.0
2014-Sep-26 00:32N 44°44' E 037°48'0 0.0
2014-Sep-25 23:29N 44°44' E 037°48'0 0.0
2014-Sep-25 22:32N 44°44' E 037°48'0 0.0
2014-Sep-25 21:32N 44°44' E 037°48'0 0.0
2014-Sep-25 20:32N 44°44' E 037°48'0 0.0
2014-Sep-25 19:31N 44°44' E 037°48'0 0.0
2014-Sep-25 18:33N 44°44' E 037°48'0 0.0
2014-Sep-25 17:33N 44°44' E 037°48'0 0.0
2014-Sep-25 16:33N 44°44' E 037°48'0 0.0
2014-Sep-25 15:30N 44°44' E 037°48'0 0.0
2014-Sep-25 14:33N 44°44' E 037°48'0 0.0
2014-Sep-25 13:33N 44°44' E 037°48'0 0.0
2014-Sep-25 12:33N 44°44' E 037°48'0 0.0
2014-Sep-25 11:33N 44°44' E 037°48'0 0.0
2014-Sep-25 10:33N 44°44' E 037°48'0 0.0
2014-Sep-25 09:33N 44°44' E 037°48'0 0.0
2014-Sep-25 08:33N 44°44' E 037°48'0 0.0
2014-Sep-25 07:33N 44°44' E 037°48'0 0.0
2014-Sep-25 06:33N 44°44' E 037°48'0 0.0
2014-Sep-25 05:33N 44°44' E 037°48'0 0.0
2014-Sep-25 04:33N 44°44' E 037°48'0 0.0
2014-Sep-25 03:33N 44°44' E 037°48'0 0.0
2014-Sep-25 02:33N 44°44' E 037°48'0 0.0
2014-Sep-25 01:33N 44°44' E 037°48'0 0.0
2014-Sep-25 00:33N 44°44' E 037°48'0 0.0
2014-Sep-24 23:33N 44°44' E 037°48'0 0.0
2014-Sep-24 22:33N 44°44' E 037°48'0 0.0
2014-Sep-24 21:33N 44°44' E 037°48'0 0.0
2014-Sep-24 20:33N 44°44' E 037°48'0 0.0
2014-Sep-24 19:32N 44°44' E 037°48'0 0.0
2014-Sep-24 18:33N 44°44' E 037°48'0 0.0
2014-Sep-24 17:33N 44°44' E 037°48'0 0.0
2014-Sep-24 16:33N 44°44' E 037°48'0 0.0
2014-Sep-24 15:33N 44°44' E 037°48'0 0.0
2014-Sep-24 14:33N 44°44' E 037°48'0 0.0
2014-Sep-24 13:33N 44°44' E 037°48'0 0.0
2014-Sep-24 12:33N 44°44' E 037°48'0 0.0
2014-Sep-24 10:33N 44°44' E 037°48'0 0.0
2014-Sep-24 09:33N 44°44' E 037°48'0 0.0
2014-Sep-24 08:33N 44°44' E 037°48'0 0.0
2014-Sep-24 07:30N 44°44' E 037°48'0 0.0
2014-Sep-24 06:33N 44°44' E 037°48'0 0.0
2014-Sep-24 05:33N 44°44' E 037°48'0 0.0
2014-Sep-24 04:33N 44°44' E 037°48'0 0.0
2014-Sep-24 03:33N 44°44' E 037°48'0 0.0
2014-Sep-24 02:33N 44°44' E 037°48'0 0.0
2014-Sep-24 01:33N 44°44' E 037°48'0 0.0
2014-Sep-24 00:33N 44°44' E 037°48'0 0.0
2014-Sep-23 23:30N 44°44' E 037°48'0 0.0
2014-Sep-23 22:30N 44°44' E 037°48'0 0.0
2014-Sep-23 21:33N 44°44' E 037°48'0 0.0
2014-Sep-23 20:33N 44°44' E 037°48'0 0.0
2014-Sep-23 19:32N 44°44' E 037°48'0 0.0
2014-Sep-23 18:29N 44°44' E 037°48'0 0.0
2014-Sep-23 17:29N 44°44' E 037°48'0 0.0
2014-Sep-23 16:32N 44°44' E 037°48'0 0.0
2014-Sep-23 15:32N 44°44' E 037°48'0 0.0
2014-Sep-23 14:32N 44°44' E 037°48'0 0.0
2014-Sep-23 13:32N 44°44' E 037°48'0 0.0
2014-Sep-23 12:32N 44°44' E 037°48'0 0.0
2014-Sep-23 11:32N 44°44' E 037°48'0 0.0
2014-Sep-23 10:32N 44°44' E 037°48'0 0.0
2014-Sep-23 09:32N 44°44' E 037°48'2 1.8
2014-Sep-23 08:33N 44°42' E 037°49'6 5.3
2014-Sep-23 07:31N 44°37' E 037°52'2 1.9
2014-Sep-23 06:32N 44°36' E 037°50'2 1.8
2014-Sep-23 05:33N 44°37' E 037°52'2 2.2
2014-Sep-23 04:31N 44°39' E 037°54'0 0.0
2014-Sep-23 03:31N 44°39' E 037°54'0 0.0
2014-Sep-23 02:31N 44°39' E 037°54'0 0.0
2014-Sep-23 01:31N 44°39' E 037°54'0 0.0
2014-Sep-23 00:31N 44°39' E 037°54'0 0.0
2014-Sep-22 23:31N 44°39' E 037°54'0 0.0
2014-Sep-22 22:31N 44°39' E 037°54'0 0.0
2014-Sep-22 21:31N 44°39' E 037°54'0 0.0
2014-Sep-22 20:31N 44°39' E 037°54'0 0.0
2014-Sep-22 19:33N 44°39' E 037°54'0 0.0
2014-Sep-22 18:31N 44°39' E 037°54'0 0.0
2014-Sep-22 17:31N 44°39' E 037°54'0 0.1
2014-Sep-22 16:31N 44°38' E 037°54'0 0.0
2014-Sep-22 15:31N 44°39' E 037°54'0 0.0
2014-Sep-22 14:31N 44°39' E 037°54'0 0.1
2014-Sep-22 13:31N 44°39' E 037°54'0 0.1
2014-Sep-22 12:31N 44°39' E 037°54'0 0.0
2014-Sep-22 11:31N 44°39' E 037°54'0 0.0
2014-Sep-22 10:25N 44°39' E 037°54'0 0.1
2014-Sep-22 09:31N 44°39' E 037°54'4 4.6
2014-Sep-22 08:33N 44°35' E 037°51'9 8.7
2014-Sep-22 07:33N 44°33' E 037°39'9 8.2
2014-Sep-22 06:27N 44°37' E 037°28'  
Track history (hours):
 
Tides and Currents Weather Stations Pressure Air Temp Water Temp Dewpoint Dewpoint Depression Visibility Wind Speed Wind Dir Waves Ship Positions

Sv.knyaz Vladimir

Last reported at 2014-Sep-30 14:20 UTC. Time now 2014-Oct-01 22:21 UTC.
Position N 44°04' E 036°07'.

Length 128 m; draft 4.5 m.

Type: Cargo ship. MMSI: 273350360.

Date/timePositionNaut miles runAvg speedWind from/ knotsBaromVisibWave heightAir tempDewpointWater temp
2014-Sep-30 14:20N 44°04' E 036°07'54 8.7
2014-Sep-30 08:09N 44°24' E 037°18'5 9.2
2014-Sep-30 07:33N 44°26' E 037°24'10 9.5
2014-Sep-30 06:33N 44°31' E 037°36'9 8.9
2014-Sep-30 05:34N 44°36' E 037°46'7 6.9
2014-Sep-30 04:33N 44°43' E 037°48'1 0.9
2014-Sep-30 03:32N 44°44' E 037°48'0 0.0
2014-Sep-30 02:32N 44°44' E 037°48'0 0.0
2014-Sep-30 01:32N 44°44' E 037°48'0 0.0
2014-Sep-30 00:32N 44°44' E 037°48'0 0.0
2014-Sep-29 23:32N 44°44' E 037°48'0 0.0
2014-Sep-29 22:32N 44°44' E 037°48'0 0.0
2014-Sep-29 21:33N 44°44' E 037°48'0 0.0
2014-Sep-29 20:30N 44°44' E 037°48'0 0.0
2014-Sep-29 19:33N 44°44' E 037°48'0 0.0
2014-Sep-29 18:31N 44°44' E 037°48'0 0.0
2014-Sep-29 17:31N 44°44' E 037°48'0 0.0
2014-Sep-29 16:28N 44°44' E 037°48'0 0.0
2014-Sep-29 15:31N 44°44' E 037°48'0 0.0
2014-Sep-29 14:31N 44°44' E 037°48'0 0.0
2014-Sep-29 13:31N 44°44' E 037°48'0 0.0
2014-Sep-29 12:31N 44°44' E 037°48'0 0.0
2014-Sep-29 11:31N 44°44' E 037°48'0 0.0
2014-Sep-29 10:28N 44°44' E 037°48'0 0.0
2014-Sep-29 09:31N 44°44' E 037°48'0 0.0
2014-Sep-29 08:31N 44°44' E 037°48'0 0.0
2014-Sep-29 07:31N 44°44' E 037°48'0 0.0
2014-Sep-29 06:31N 44°44' E 037°48'0 0.0
2014-Sep-29 05:31N 44°44' E 037°48'0 0.0
2014-Sep-29 04:33N 44°44' E 037°48'0 0.0
2014-Sep-29 03:33N 44°44' E 037°48'0 0.0
2014-Sep-29 02:30N 44°44' E 037°48'0 0.0
2014-Sep-29 01:33N 44°44' E 037°48'0 0.0
2014-Sep-29 00:33N 44°44' E 037°48'0 0.0
2014-Sep-28 23:33N 44°44' E 037°48'0 0.0
2014-Sep-28 22:27N 44°44' E 037°48'0 0.0
2014-Sep-28 21:33N 44°44' E 037°48'0 0.0
2014-Sep-28 20:33N 44°44' E 037°48'0 0.0
2014-Sep-28 19:32N 44°44' E 037°48'0 0.0
2014-Sep-28 18:32N 44°44' E 037°48'0 0.0
2014-Sep-28 17:32N 44°44' E 037°48'0 0.0
2014-Sep-28 16:32N 44°44' E 037°48'0 0.0
2014-Sep-28 15:32N 44°44' E 037°48'0 0.0
2014-Sep-28 14:32N 44°44' E 037°48'0 0.0
2014-Sep-28 13:32N 44°44' E 037°48'0 0.0
2014-Sep-28 12:32N 44°44' E 037°48'0 0.0
2014-Sep-28 11:32N 44°44' E 037°48'0 0.0
2014-Sep-28 10:32N 44°44' E 037°48'0 0.0
2014-Sep-28 09:32N 44°44' E 037°48'0 0.0
2014-Sep-28 08:29N 44°44' E 037°48'0 0.0
2014-Sep-28 07:32N 44°44' E 037°48'0 0.0
2014-Sep-28 06:32N 44°44' E 037°48'0 0.0
2014-Sep-28 05:32N 44°44' E 037°48'0 0.0
2014-Sep-28 04:32N 44°44' E 037°48'0 0.0
2014-Sep-28 03:32N 44°44' E 037°48'0 0.0
2014-Sep-28 02:32N 44°44' E 037°48'0 0.0
2014-Sep-28 01:32N 44°44' E 037°48'0 0.0
2014-Sep-28 00:32N 44°44' E 037°48'0 0.0
2014-Sep-27 23:32N 44°44' E 037°48'0 0.0
2014-Sep-27 22:32N 44°44' E 037°48'0 0.0
2014-Sep-27 21:32N 44°44' E 037°48'0 0.0
2014-Sep-27 20:26N 44°44' E 037°48'0 0.0
2014-Sep-27 19:33N 44°44' E 037°48'0 0.0
2014-Sep-27 18:32N 44°44' E 037°48'0 0.0
2014-Sep-27 17:29N 44°44' E 037°48'0 0.0
2014-Sep-27 16:32N 44°44' E 037°48'0 0.0
2014-Sep-27 15:32N 44°44' E 037°48'0 0.0
2014-Sep-27 14:32N 44°44' E 037°48'0 0.0
2014-Sep-27 13:32N 44°44' E 037°48'0 0.0
2014-Sep-27 12:29N 44°44' E 037°48'0 0.0
2014-Sep-27 11:32N 44°44' E 037°48'0 0.0
2014-Sep-27 10:29N 44°44' E 037°48'0 0.0
2014-Sep-27 09:32N 44°44' E 037°48'0 0.0
2014-Sep-27 08:29N 44°44' E 037°48'0 0.0
2014-Sep-27 07:29N 44°44' E 037°48'0 0.0
2014-Sep-27 06:29N 44°44' E 037°48'0 0.0
2014-Sep-27 05:29N 44°44' E 037°48'0 0.0
2014-Sep-27 04:32N 44°44' E 037°48'0 0.0
2014-Sep-27 03:32N 44°44' E 037°48'0 0.0
2014-Sep-27 02:29N 44°44' E 037°48'0 0.0
2014-Sep-27 01:32N 44°44' E 037°48'0 0.0
2014-Sep-27 00:28N 44°44' E 037°48'0 0.0
2014-Sep-26 23:31N 44°44' E 037°48'0 0.0
2014-Sep-26 22:31N 44°44' E 037°48'0 0.0
2014-Sep-26 21:31N 44°44' E 037°48'0 0.0
2014-Sep-26 20:31N 44°44' E 037°48'0 0.0
2014-Sep-26 19:33N 44°44' E 037°48'0 0.0
2014-Sep-26 18:31N 44°44' E 037°48'0 0.0
2014-Sep-26 17:31N 44°44' E 037°48'0 0.0
2014-Sep-26 16:31N 44°44' E 037°48'0 0.0
2014-Sep-26 15:31N 44°44' E 037°48'0 0.0
2014-Sep-26 14:31N 44°44' E 037°48'0 0.0
2014-Sep-26 13:31N 44°44' E 037°48'0 0.0
2014-Sep-26 12:31N 44°44' E 037°48'0 0.0
2014-Sep-26 11:31N 44°44' E 037°48'0 0.0
2014-Sep-26 10:31N 44°44' E 037°48'0 0.0
2014-Sep-26 09:31N 44°44' E 037°48'0 0.0
2014-Sep-26 08:31N 44°44' E 037°48'0 0.0
2014-Sep-26 07:31N 44°44' E 037°48'0 0.0
2014-Sep-26 06:31N 44°44' E 037°48'0 0.0
2014-Sep-26 05:31N 44°44' E 037°48'0 0.0
2014-Sep-26 04:32N 44°44' E 037°48'0 0.0
2014-Sep-26 03:32N 44°44' E 037°48'0 0.0
2014-Sep-26 02:29N 44°44' E 037°48'0 0.0
2014-Sep-26 01:32N 44°44' E 037°48'0 0.0
2014-Sep-26 00:32N 44°44' E 037°48'0 0.0
2014-Sep-25 23:29N 44°44' E 037°48'0 0.0
2014-Sep-25 22:32N 44°44' E 037°48'0 0.0
2014-Sep-25 21:32N 44°44' E 037°48'0 0.0
2014-Sep-25 20:32N 44°44' E 037°48'0 0.0
2014-Sep-25 19:31N 44°44' E 037°48'0 0.0
2014-Sep-25 18:33N 44°44' E 037°48'0 0.0
2014-Sep-25 17:33N 44°44' E 037°48'0 0.0
2014-Sep-25 16:33N 44°44' E 037°48'0 0.0
2014-Sep-25 15:30N 44°44' E 037°48'0 0.0
2014-Sep-25 14:33N 44°44' E 037°48'0 0.0
2014-Sep-25 13:33N 44°44' E 037°48'0 0.0
2014-Sep-25 12:33N 44°44' E 037°48'0 0.0
2014-Sep-25 11:33N 44°44' E 037°48'0 0.0
2014-Sep-25 10:33N 44°44' E 037°48'0 0.0
2014-Sep-25 09:33N 44°44' E 037°48'0 0.0
2014-Sep-25 08:33N 44°44' E 037°48'0 0.0
2014-Sep-25 07:33N 44°44' E 037°48'0 0.0
2014-Sep-25 06:33N 44°44' E 037°48'0 0.0
2014-Sep-25 05:33N 44°44' E 037°48'0 0.0
2014-Sep-25 04:33N 44°44' E 037°48'0 0.0
2014-Sep-25 03:33N 44°44' E 037°48'0 0.0
2014-Sep-25 02:33N 44°44' E 037°48'0 0.0
2014-Sep-25 01:33N 44°44' E 037°48'0 0.0
2014-Sep-25 00:33N 44°44' E 037°48'0 0.0
2014-Sep-24 23:33N 44°44' E 037°48'0 0.0
2014-Sep-24 22:33N 44°44' E 037°48'0 0.0
2014-Sep-24 21:33N 44°44' E 037°48'0 0.0
2014-Sep-24 20:33N 44°44' E 037°48'0 0.0
2014-Sep-24 19:32N 44°44' E 037°48'0 0.0
2014-Sep-24 18:33N 44°44' E 037°48'0 0.0
2014-Sep-24 17:33N 44°44' E 037°48'0 0.0
2014-Sep-24 16:33N 44°44' E 037°48'0 0.0
2014-Sep-24 15:33N 44°44' E 037°48'0 0.0
2014-Sep-24 14:33N 44°44' E 037°48'0 0.0
2014-Sep-24 13:33N 44°44' E 037°48'0 0.0
2014-Sep-24 12:33N 44°44' E 037°48'0 0.0
2014-Sep-24 10:33N 44°44' E 037°48'0 0.0
2014-Sep-24 09:33N 44°44' E 037°48'0 0.0
2014-Sep-24 08:33N 44°44' E 037°48'0 0.0
2014-Sep-24 07:30N 44°44' E 037°48'0 0.0
2014-Sep-24 06:33N 44°44' E 037°48'0 0.0
2014-Sep-24 05:33N 44°44' E 037°48'0 0.0
2014-Sep-24 04:33N 44°44' E 037°48'0 0.0
2014-Sep-24 03:33N 44°44' E 037°48'0 0.0
2014-Sep-24 02:33N 44°44' E 037°48'0 0.0
2014-Sep-24 01:33N 44°44' E 037°48'0 0.0
2014-Sep-24 00:33N 44°44' E 037°48'0 0.0
2014-Sep-23 23:30N 44°44' E 037°48'0 0.0
2014-Sep-23 22:30N 44°44' E 037°48'0 0.0
2014-Sep-23 21:33N 44°44' E 037°48'0 0.0
2014-Sep-23 20:33N 44°44' E 037°48'0 0.0
2014-Sep-23 19:32N 44°44' E 037°48'0 0.0
2014-Sep-23 18:29N 44°44' E 037°48'0 0.0
2014-Sep-23 17:29N 44°44' E 037°48'0 0.0
2014-Sep-23 16:32N 44°44' E 037°48'0 0.0
2014-Sep-23 15:32N 44°44' E 037°48'0 0.0
2014-Sep-23 14:32N 44°44' E 037°48'0 0.0
2014-Sep-23 13:32N 44°44' E 037°48'0 0.0
2014-Sep-23 12:32N 44°44' E 037°48'0 0.0
2014-Sep-23 11:32N 44°44' E 037°48'0 0.0
2014-Sep-23 10:32N 44°44' E 037°48'0 0.0
2014-Sep-23 09:32N 44°44' E 037°48'2 1.8
2014-Sep-23 08:33N 44°42' E 037°49'6 5.3
2014-Sep-23 07:31N 44°37' E 037°52'2 1.9
2014-Sep-23 06:32N 44°36' E 037°50'2 1.8
2014-Sep-23 05:33N 44°37' E 037°52'2 2.2
2014-Sep-23 04:31N 44°39' E 037°54'0 0.0
2014-Sep-23 03:31N 44°39' E 037°54'0 0.0
2014-Sep-23 02:31N 44°39' E 037°54'0 0.0
2014-Sep-23 01:31N 44°39' E 037°54'0 0.0
2014-Sep-23 00:31N 44°39' E 037°54'0 0.0
2014-Sep-22 23:31N 44°39' E 037°54'0 0.0
2014-Sep-22 22:31N 44°39' E 037°54'0 0.0
2014-Sep-22 21:31N 44°39' E 037°54'0 0.0
2014-Sep-22 20:31N 44°39' E 037°54'0 0.0
2014-Sep-22 19:33N 44°39' E 037°54'0 0.0
2014-Sep-22 18:31N 44°39' E 037°54'0 0.0
2014-Sep-22 17:31N 44°39' E 037°54'0 0.1
2014-Sep-22 16:31N 44°38' E 037°54'0 0.0
2014-Sep-22 15:31N 44°39' E 037°54'0 0.0
2014-Sep-22 14:31N 44°39' E 037°54'0 0.1
2014-Sep-22 13:31N 44°39' E 037°54'0 0.1
2014-Sep-22 12:31N 44°39' E 037°54'0 0.0
2014-Sep-22 11:31N 44°39' E 037°54'0 0.0
2014-Sep-22 10:25N 44°39' E 037°54'0 0.1
2014-Sep-22 09:31N 44°39' E 037°54'4 4.6
2014-Sep-22 08:33N 44°35' E 037°51'9 8.7
2014-Sep-22 07:33N 44°33' E 037°39'9 8.2
2014-Sep-22 06:27N 44°37' E 037°28'  

Dump ship's entire track history